Nappanee, IN

12:13 AM EST on March 06, 2015 (GMT -0500)
NTA Test Lab | Change Station
CLOSE
Current Station
Personal Weather Station
Location: Nappanee, IN
Elevation: 860 ft
Nearby Weather Stations

Elev 860 ft 41.44 °N, 86.00 °W | Updated 4 seconds ago

Partly Cloudy
Partly Cloudy
7.5 °F
Feels Like 8 °F
N
2.2
Wind Variable Wind from SW
Gusts 3.1 mph

Today
High -- | Low -- °F
--% Chance of Precip.
Yesterday
High -- | Low -- °F
Precip. -- in
7:10 AM 6:40 PM
Full, 100% visible
Pressure 30.56 in
Visibility 10.0 miles
Clouds Clear
Windchill 8 °F
Dew Point -8 °F
Humidity 48%
Rainfall in
Snow Depth Not available.
UV 0 out of 12
Pollen .40 out of 12
Air Quality Not available.
Flu Activity Not available.
METAR KGSH 060453Z AUTO 00000KT 10SM CLR M17/M19 A3050 RMK AO2 SLP348 T11671194 410721167

More Conditions Fewer Conditions

Pressure 30.56 in
Visibility 10.0 miles
Clouds Clear
Windchill 8 °F
Dew Point -8 °F
Humidity 48%
Rainfall in
Snow Depth Not available.
UV 0 out of 12
Pollen .40 out of 12
Air Quality Not available.
Flu Activity Not available.
METAR KGSH 060453Z AUTO 00000KT 10SM CLR M17/M19 A3050 RMK AO2 SLP348 T11671194 410721167

More Conditions Fewer Conditions

10-Day Weather Forecast

Almanac

Astronomy

Mar. 06, 2015 Rise Set
Actual Time
Civil Twilight
Nautical Twilight
Astronomical Twilight
Moon
Length of Visible Light
Length of Day
Tomorrow will be .
, % of the Moon is Illuminated

Today's Extremes

State Highs State Lows

Community

WunderPhotos

Upload Photos

1,803,194 photos uploaded!

WunderBlogs® & News

Nearby

Air Quality

  Air Quality AQ Index Pollutant
Not available.

Snow Depth

Station Depth Elevation

Earthquake Activity

City Distance Mag. Time & Date
Minimum magnitude displayed is 2.5.

Coastal Water Temperatures

Place Temperature

Nearby Weather Stations